Time;durP1;ratioP1;P1;durP2;ratioP2;P2;SDS_P1;SDS_P2;PMS_P1;PMS_P2;Temp;Humidity;BMP_temperature;BMP_pressure;BME280_temperature;BME280_humidity;BME280_pressure;Samples;Min_cycle;Max_cycle;Signal;HPM_P1;HPM_P2
2023/06/13 00:00:20;;;;;;;;;;;;;;;17.13;52.37;92370.03;2058951;69;20535;-75
2023/06/13 00:02:46;;;;;;;;;;;;;;;17.03;52.98;92365.50;2055403;69;20058;-74
2023/06/13 00:05:15;;;;;;;;;;;;;;;17.13;52.02;92370.03;2059099;69;20073;-75
2023/06/13 00:07:40;;;;;;;;;;;;;;;17.03;52.64;92367.59;2055209;69;20106;-75
2023/06/13 00:10:06;;;;;;;;;;;;;;;17.09;52.83;92367.81;2058658;69;20123;-75
2023/06/13 00:12:32;;;;;;;;;;;;;;;17.18;51.66;92366.69;2054555;69;20447;-75
2023/06/13 00:15:01;;;;;;;;;;;;;;;17.02;52.65;92360.47;2058449;69;20524;-74
2023/06/13 00:17:26;;;;;;;;;;;;;;;16.82;53.37;92368.38;2055121;69;20050;-76
2023/06/13 00:19:54;;;;;;;;;;;;;;;16.85;52.77;92355.66;2055015;69;20060;-75
2023/06/13 00:22:20;;;;;;;;;;;;;;;16.84;53.18;92360.63;2058521;69;20061;-75
2023/06/13 00:24:46;;;;;;;;;;;;;;;16.78;53.36;92366.13;2055097;69;20157;-75
2023/06/13 00:27:11;;;;;;;;;;;;;;;16.75;53.42;92367.44;2059235;69;20494;-74
2023/06/13 00:29:37;;;;;;;;;;;;;;;16.68;53.49;92360.81;2061888;69;20116;-73
2023/06/13 00:32:03;;;;;;;;;;;;;;;16.61;53.62;92358.41;2062273;69;20540;-74
2023/06/13 00:34:28;;;;;;;;;;;;;;;16.61;53.63;92361.25;2055745;69;20124;-76
2023/06/13 00:36:55;;;;;;;;;;;;;;;16.41;54.66;92356.34;2061595;69;20124;-74
2023/06/13 00:39:21;;;;;;;;;;;;;;;16.51;54.09;92351.00;2058538;69;20161;-76
2023/06/13 00:41:47;;;;;;;;;;;;;;;16.46;53.87;92352.25;2061818;69;20041;-76
2023/06/13 00:44:12;;;;;;;;;;;;;;;16.47;53.58;92355.81;2054748;69;20062;-74
2023/06/13 00:46:39;;;;;;;;;;;;;;;16.39;54.04;92349.84;2061603;69;20164;-76
2023/06/13 00:49:05;;;;;;;;;;;;;;;16.39;54.23;92342.06;2058585;69;20214;-75
2023/06/13 00:51:31;;;;;;;;;;;;;;;16.18;54.79;92349.19;2062110;69;20173;-74
2023/06/13 00:53:58;;;;;;;;;;;;;;;16.22;54.60;92345.75;2062572;69;20497;-76
2023/06/13 00:56:24;;;;;;;;;;;;;;;16.44;53.32;92340.81;2058877;69;20058;-74
2023/06/13 00:58:50;;;;;;;;;;;;;;;16.40;53.58;92349.22;2062070;69;20087;-75
2023/06/13 01:01:19;;;;;;;;;;;;;;;16.16;54.97;92345.53;2061709;69;20056;-74
2023/06/13 01:03:45;;;;;;;;;;;;;;;16.19;53.94;92335.72;2055685;69;20045;-76
2023/06/13 01:06:13;;;;;;;;;;;;;;;16.14;54.55;92340.53;2058615;69;20157;-75
2023/06/13 01:08:40;;;;;;;;;;;;;;;16.15;54.68;92339.13;2061834;69;20493;-76
2023/06/13 01:11:23;;;;;;;;;;;;;;;16.06;54.94;92336.66;2058372;69;20062;-75
2023/06/13 01:13:54;;;;;;;;;;;;;;;15.98;55.05;92334.25;2061991;69;20045;-76
2023/06/13 01:16:34;;;;;;;;;;;;;;;16.02;54.56;92334.41;2058301;69;20053;-73
2023/06/13 01:19:03;;;;;;;;;;;;;;;15.93;55.61;92329.84;2061772;69;20500;-76
2023/06/13 01:21:30;;;;;;;;;;;;;;;15.85;55.55;92323.88;2062177;69;20058;-75
2023/06/13 01:24:04;;;;;;;;;;;;;;;15.98;55.18;92326.47;2062079;69;20507;-75
2023/06/13 01:26:51;;;;;;;;;;;;;;;15.89;54.90;92316.22;2058292;69;20061;-76
2023/06/13 01:29:17;;;;;;;;;;;;;;;15.87;55.34;92316.16;2058543;69;20084;-75
2023/06/13 01:31:45;;;;;;;;;;;;;;;15.89;55.21;92313.38;2061907;69;20054;-75
2023/06/13 01:34:12;;;;;;;;;;;;;;;15.75;56.03;92310.03;2059166;69;20046;-76
2023/06/13 01:36:38;;;;;;;;;;;;;;;15.79;56.13;92309.47;2058044;69;20065;-74
2023/06/13 01:39:03;;;;;;;;;;;;;;;15.78;56.01;92317.25;2057661;69;20066;-73
2023/06/13 01:41:29;;;;;;;;;;;;;;;15.61;56.47;92307.41;2055474;69;20050;-73
2023/06/13 01:43:54;;;;;;;;;;;;;;;15.71;54.29;92304.97;2061605;69;20068;-72
2023/06/13 01:46:25;;;;;;;;;;;;;;;15.65;56.21;92306.84;2061929;69;20112;-74
2023/06/13 01:49:10;;;;;;;;;;;;;;;15.59;55.81;92306.63;2055705;69;20081;-75
2023/06/13 01:51:44;;;;;;;;;;;;;;;15.79;54.90;92298.84;2062074;69;20046;-74
2023/06/13 01:54:11;;;;;;;;;;;;;;;15.61;55.58;92303.84;2058687;69;20046;-74
2023/06/13 01:56:37;;;;;;;;;;;;;;;15.62;55.53;92291.81;2061906;69;20049;-73
2023/06/13 01:59:08;;;;;;;;;;;;;;;15.57;55.85;92293.06;2062090;69;20485;-75
2023/06/13 02:01:36;;;;;;;;;;;;;;;15.54;55.64;92293.69;2059018;69;20477;-76
2023/06/13 02:04:02;;;;;;;;;;;;;;;15.45;55.91;92292.66;2062328;69;20097;-75
2023/06/13 02:06:29;;;;;;;;;;;;;;;15.34;56.32;92285.88;2062352;69;20495;-75
2023/06/13 02:08:56;;;;;;;;;;;;;;;15.30;56.72;92285.00;2055918;69;20526;-76
2023/06/13 02:11:21;;;;;;;;;;;;;;;15.27;56.91;92286.31;2058892;69;20144;-75
2023/06/13 02:13:48;;;;;;;;;;;;;;;15.27;56.41;92274.97;2058686;69;20054;-74
2023/06/13 02:16:14;;;;;;;;;;;;;;;15.29;57.06;92281.44;2058341;69;20053;-76
2023/06/13 02:18:40;;;;;;;;;;;;;;;15.28;56.59;92287.75;2055809;69;20059;-75
2023/06/13 02:21:05;;;;;;;;;;;;;;;15.11;57.56;92289.97;2058896;69;20089;-74
2023/06/13 02:23:31;;;;;;;;;;;;;;;15.13;57.36;92284.41;2062275;69;20173;-74
2023/06/13 02:25:57;;;;;;;;;;;;;;;15.13;57.17;92292.91;2055583;69;20546;-73
2023/06/13 02:28:23;;;;;;;;;;;;;;;15.19;56.57;92292.41;2062474;69;20476;-74
2023/06/13 02:30:48;;;;;;;;;;;;;;;15.08;57.37;92282.06;2062119;69;20116;-75
2023/06/13 02:33:14;;;;;;;;;;;;;;;14.99;57.58;92286.72;2058617;69;20066;-75
2023/06/13 02:35:43;;;;;;;;;;;;;;;15.05;57.14;92289.03;2062280;69;20497;-74
2023/06/13 02:38:08;;;;;;;;;;;;;;;14.90;57.64;92285.66;2062368;69;20049;-75
2023/06/13 02:40:37;;;;;;;;;;;;;;;14.91;57.38;92289.94;2062600;69;20530;-76
2023/06/13 02:43:03;;;;;;;;;;;;;;;14.91;57.49;92289.22;2058906;69;20109;-75
2023/06/13 02:45:29;;;;;;;;;;;;;;;14.85;58.18;92289.00;2062386;69;20177;-75
2023/06/13 02:47:54;;;;;;;;;;;;;;;14.91;56.86;92283.56;2062056;69;20049;-77
2023/06/13 02:50:21;;;;;;;;;;;;;;;14.78;57.81;92290.13;2058726;69;20496;-77
2023/06/13 02:52:49;;;;;;;;;;;;;;;14.87;57.70;92286.97;2055858;69;20608;-75
2023/06/13 02:55:15;;;;;;;;;;;;;;;14.76;58.34;92287.22;2062155;69;20240;-75
2023/06/13 02:57:41;;;;;;;;;;;;;;;14.78;57.52;92285.19;2062326;69;20633;-75
2023/06/13 03:00:09;;;;;;;;;;;;;;;14.74;57.89;92293.53;2062230;69;20173;-75
2023/06/13 03:02:39;;;;;;;;;;;;;;;14.68;58.08;92291.19;2055722;69;20053;-75
2023/06/13 03:05:07;;;;;;;;;;;;;;;14.59;58.60;92288.69;2058530;69;20053;-75
2023/06/13 03:07:32;;;;;;;;;;;;;;;14.60;58.17;92290.88;2058455;69;20120;-75
2023/06/13 03:09:59;;;;;;;;;;;;;;;14.58;58.22;92281.56;2058191;69;20053;-75
2023/06/13 03:12:25;;;;;;;;;;;;;;;14.65;58.05;92280.44;2055119;69;20045;-74
2023/06/13 03:14:51;;;;;;;;;;;;;;;14.66;57.76;92281.88;2058206;69;20077;-75
2023/06/13 03:17:17;;;;;;;;;;;;;;;14.50;58.75;92284.81;2057756;69;20058;-74
2023/06/13 03:19:44;;;;;;;;;;;;;;;14.48;59.02;92279.81;2057514;69;20080;-75
2023/06/13 03:22:13;;;;;;;;;;;;;;;14.46;59.02;92282.50;2055058;69;20420;-75
2023/06/13 03:24:40;;;;;;;;;;;;;;;14.45;58.52;92283.16;2061677;69;20498;-76
2023/06/13 03:27:06;;;;;;;;;;;;;;;14.42;58.37;92279.50;2061376;69;20042;-78
2023/06/13 03:29:32;;;;;;;;;;;;;;;14.47;58.44;92283.97;2057545;69;20163;-74
2023/06/13 03:31:58;;;;;;;;;;;;;;;14.48;58.86;92293.97;2061103;69;20065;-75
2023/06/13 03:34:25;;;;;;;;;;;;;;;14.36;58.75;92290.59;2056201;69;20058;-74
2023/06/13 03:36:51;;;;;;;;;;;;;;;14.36;59.19;92292.72;2054226;69;20054;-74
2023/06/13 03:39:18;;;;;;;;;;;;;;;14.39;59.07;92288.59;2054676;69;20056;-75
2023/06/13 03:41:43;;;;;;;;;;;;;;;14.27;59.31;92285.28;2054470;69;20152;-77
2023/06/13 03:44:09;;;;;;;;;;;;;;;14.25;59.23;92288.75;2058620;69;20112;-76
2023/06/13 03:46:36;;;;;;;;;;;;;;;14.31;58.93;92285.44;2054312;69;20058;-77
2023/06/13 03:49:02;;;;;;;;;;;;;;;14.28;59.23;92289.56;2054828;69;20080;-74
2023/06/13 03:51:28;;;;;;;;;;;;;;;14.32;59.56;92284.78;2054954;69;20485;-76
2023/06/13 03:53:53;;;;;;;;;;;;;;;14.25;59.89;92288.75;2052112;69;20500;-75
2023/06/13 03:56:19;;;;;;;;;;;;;;;14.21;59.83;92291.41;2051744;69;20428;-74
2023/06/13 03:58:45;;;;;;;;;;;;;;;14.12;60.54;92298.13;2055126;69;20046;-76
2023/06/13 04:01:11;;;;;;;;;;;;;;;14.22;59.50;92293.59;2054799;69;20050;-75
2023/06/13 04:03:39;;;;;;;;;;;;;;;14.23;59.64;92297.88;2058409;69;20057;-75
2023/06/13 04:06:08;;;;;;;;;;;;;;;14.05;60.57;92302.06;2055639;69;20093;-75
2023/06/13 04:08:35;;;;;;;;;;;;;;;14.05;60.51;92297.13;2059973;69;20046;-75
2023/06/13 04:11:04;;;;;;;;;;;;;;;14.19;60.02;92299.81;2053732;69;20077;-76
2023/06/13 04:13:32;;;;;;;;;;;;;;;14.13;59.97;92300.28;2053756;69;20522;-75
2023/06/13 04:16:00;;;;;;;;;;;;;;;14.08;60.53;92298.69;2055983;69;20065;-74
2023/06/13 04:18:26;;;;;;;;;;;;;;;14.16;60.13;92303.94;2057611;69;20213;-77
2023/06/13 04:20:53;;;;;;;;;;;;;;;14.18;60.37;92307.59;2057596;69;20061;-75
2023/06/13 04:23:19;;;;;;;;;;;;;;;14.08;60.95;92306.44;2057724;69;20501;-74
2023/06/13 04:25:44;;;;;;;;;;;;;;;14.13;60.72;92308.78;2057467;69;20158;-75
2023/06/13 04:28:13;;;;;;;;;;;;;;;14.14;60.24;92306.69;2061576;69;20053;-74
2023/06/13 04:30:41;;;;;;;;;;;;;;;14.14;60.49;92306.69;2060921;69;20443;-73
2023/06/13 04:33:14;;;;;;;;;;;;;;;14.12;60.66;92306.63;2060847;69;20489;-74
2023/06/13 04:35:44;;;;;;;;;;;;;;;14.20;60.35;92306.91;2060983;69;20156;-74
2023/06/13 04:38:14;;;;;;;;;;;;;;;14.29;59.68;92305.16;2057779;69;20088;-74
2023/06/13 04:40:39;;;;;;;;;;;;;;;14.27;60.22;92308.66;2061167;69;20662;-74
2023/06/13 04:43:05;;;;;;;;;;;;;;;14.19;60.50;92305.47;2061156;69;20057;-75
2023/06/13 04:45:31;;;;;;;;;;;;;;;14.27;60.45;92307.91;2057504;69;20120;-73
2023/06/13 04:48:01;;;;;;;;;;;;;;;14.27;60.79;92310.75;2058816;69;20138;-74
2023/06/13 04:50:27;;;;;;;;;;;;;;;14.14;60.84;92309.50;2057851;69;20053;-74
2023/06/13 04:52:53;;;;;;;;;;;;;;;14.14;60.92;92315.91;2058017;69;20046;-76
2023/06/13 04:55:21;;;;;;;;;;;;;;;14.28;60.29;92312.94;2058071;69;20073;-75
2023/06/13 04:57:49;;;;;;;;;;;;;;;14.18;60.91;92310.41;2054168;69;20058;-74
2023/06/13 05:00:15;;;;;;;;;;;;;;;14.31;61.21;92316.56;2053988;69;20058;-75
2023/06/13 05:02:45;;;;;;;;;;;;;;;14.23;61.24;92316.97;2055464;69;20502;-74
2023/06/13 05:05:10;;;;;;;;;;;;;;;14.19;61.83;92319.63;2054005;69;20054;-73
2023/06/13 05:07:39;;;;;;;;;;;;;;;14.29;61.39;92311.53;2057870;69;20047;-73
2023/06/13 05:10:04;;;;;;;;;;;;;;;14.30;61.66;92312.28;2057600;69;20476;-73
2023/06/13 05:12:30;;;;;;;;;;;;;;;14.35;60.79;92311.81;2057806;69;20053;-74
2023/06/13 05:14:55;;;;;;;;;;;;;;;14.34;61.41;92318.84;2054237;69;20065;-74
2023/06/13 05:17:21;;;;;;;;;;;;;;;14.26;62.19;92320.63;2057561;69;20548;-74
2023/06/13 05:19:47;;;;;;;;;;;;;;;14.27;62.22;92314.31;2053884;69;20054;-73
2023/06/13 05:22:12;;;;;;;;;;;;;;;14.19;61.89;92316.78;2053916;69;20043;-74
2023/06/13 05:24:38;;;;;;;;;;;;;;;14.31;61.60;92313.75;2057777;69;20556;-74
2023/06/13 05:27:03;;;;;;;;;;;;;;;14.22;62.10;92310.56;2057882;69;20058;-75
2023/06/13 05:29:29;;;;;;;;;;;;;;;14.35;61.82;92308.25;2053907;69;20578;-73
2023/06/13 05:31:57;;;;;;;;;;;;;;;14.26;62.45;92303.63;2053661;69;20069;-73
2023/06/13 05:34:23;;;;;;;;;;;;;;;14.24;62.49;92298.59;2057336;69;20070;-73
2023/06/13 05:36:49;;;;;;;;;;;;;;;14.42;62.17;92307.84;2057607;69;20054;-74
2023/06/13 05:39:15;;;;;;;;;;;;;;;14.40;61.87;92304.94;2051505;69;20145;-74
2023/06/13 05:41:40;;;;;;;;;;;;;;;14.32;62.67;92304.59;2054323;69;20124;-74
2023/06/13 05:44:06;;;;;;;;;;;;;;;14.29;62.96;92308.72;2058245;69;20074;-74
2023/06/13 05:46:31;;;;;;;;;;;;;;;14.33;62.60;92302.50;2057521;69;20113;-74
2023/06/13 05:48:57;;;;;;;;;;;;;;;14.46;62.57;92302.34;2057724;69;20474;-74
2023/06/13 05:51:22;;;;;;;;;;;;;;;14.43;62.76;92300.81;2058206;69;20478;-74
2023/06/13 05:53:48;;;;;;;;;;;;;;;14.47;61.91;92303.06;2054921;69;20434;-75
2023/06/13 05:56:13;;;;;;;;;;;;;;;14.42;62.76;92288.00;2057839;69;20153;-75
2023/06/13 05:58:39;;;;;;;;;;;;;;;14.62;62.13;92298.75;2058137;69;20175;-74
2023/06/13 06:01:05;;;;;;;;;;;;;;;14.64;62.01;92293.88;2055447;69;20054;-75
2023/06/13 06:03:31;;;;;;;;;;;;;;;14.65;61.41;92297.44;2058210;69;20089;-75
2023/06/13 06:05:57;;;;;;;;;;;;;;;14.73;61.09;92289.25;2058264;69;20108;-75
2023/06/13 06:08:23;;;;;;;;;;;;;;;14.77;60.90;92283.03;2058065;69;20061;-74
2023/06/13 06:10:49;;;;;;;;;;;;;;;14.85;59.49;92281.22;2058522;69;20108;-73
2023/06/13 06:13:15;;;;;;;;;;;;;;;14.92;60.35;92282.16;2058414;69;20074;-73
2023/06/13 06:15:40;;;;;;;;;;;;;;;14.90;61.07;92282.09;2057909;69;20050;-74
2023/06/13 06:18:06;;;;;;;;;;;;;;;15.08;60.19;92274.28;2058408;69;20050;-74
2023/06/13 06:20:31;;;;;;;;;;;;;;;14.95;62.14;92273.09;2058548;69;20496;-75
2023/06/13 06:22:57;;;;;;;;;;;;;;;15.20;61.16;92269.06;2060786;69;20089;-73
2023/06/13 06:25:22;;;;;;;;;;;;;;;15.32;61.36;92271.63;2061814;69;20069;-74
2023/06/13 06:27:51;;;;;;;;;;;;;;;15.52;61.06;92271.63;2058385;69;20048;-76
2023/06/13 06:30:17;;;;;;;;;;;;;;;15.60;61.22;92271.91;2057958;69;20057;-73
2023/06/13 06:32:43;;;;;;;;;;;;;;;15.79;60.23;92267.63;2061825;69;20062;-73
2023/06/13 06:35:09;;;;;;;;;;;;;;;15.87;60.47;92267.19;2062058;69;20112;-74
2023/06/13 06:37:35;;;;;;;;;;;;;;;16.03;59.66;92276.25;2058258;69;20125;-73
2023/06/13 06:40:00;;;;;;;;;;;;;;;16.07;59.13;92267.13;2061419;69;20089;-74
2023/06/13 06:42:27;;;;;;;;;;;;;;;16.23;59.12;92267.69;2061387;69;20515;-73
2023/06/13 06:45:04;;;;;;;;;;;;;;;16.32;59.50;92257.31;2056376;69;20072;-73
2023/06/13 06:47:29;;;;;;;;;;;;;;;16.47;58.48;92259.22;2058688;69;20111;-74
2023/06/13 06:49:55;;;;;;;;;;;;;;;16.56;58.01;92260.22;2054948;69;20142;-74
2023/06/13 06:52:21;;;;;;;;;;;;;;;16.29;58.10;92250.84;2058061;69;20615;-76
2023/06/13 06:54:46;;;;;;;;;;;;;;;16.56;56.52;92260.94;2057969;69;20077;-75
2023/06/13 06:57:12;;;;;;;;;;;;;;;16.73;56.60;92256.53;2058550;69;20058;-73
2023/06/13 06:59:37;;;;;;;;;;;;;;;16.86;57.40;92252.66;2052532;69;20061;-72
2023/06/13 07:02:03;;;;;;;;;;;;;;;16.94;56.06;92252.91;2057750;69;20054;-77
2023/06/13 07:04:30;;;;;;;;;;;;;;;17.12;57.43;92244.19;2057980;69;20054;-74
2023/06/13 07:06:57;;;;;;;;;;;;;;;17.22;54.84;92240.91;2061382;69;20115;-74
2023/06/13 07:09:22;;;;;;;;;;;;;;;17.23;54.13;92236.69;2057956;69;20073;-73
2023/06/13 07:11:48;;;;;;;;;;;;;;;17.36;53.54;92237.75;2061330;69;20123;-74
2023/06/13 07:14:13;;;;;;;;;;;;;;;17.47;55.47;92240.22;2061695;69;20105;-74
2023/06/13 07:16:38;;;;;;;;;;;;;;;17.65;54.42;92240.00;2061655;69;20145;-74
2023/06/13 07:19:04;;;;;;;;;;;;;;;17.38;53.39;92232.84;2061474;69;20473;-74
2023/06/13 07:21:29;;;;;;;;;;;;;;;17.62;51.66;92227.09;2056412;69;20156;-75
2023/06/13 07:23:57;;;;;;;;;;;;;;;17.82;51.22;92229.78;2061438;69;20144;-75
2023/06/13 07:26:23;;;;;;;;;;;;;;;17.97;50.57;92217.38;2061111;69;20585;-76
2023/06/13 07:28:48;;;;;;;;;;;;;;;17.85;47.09;92210.66;2061426;69;20054;-76
2023/06/13 07:31:14;;;;;;;;;;;;;;;18.03;49.61;92211.84;2061553;69;20160;-75
2023/06/13 07:33:39;;;;;;;;;;;;;;;18.14;49.37;92212.09;2061505;69;20061;-75
2023/06/13 07:36:05;;;;;;;;;;;;;;;18.02;48.79;92209.66;2061702;69;20052;-76
2023/06/13 07:38:31;;;;;;;;;;;;;;;18.29;48.01;92208.94;2061752;69;20041;-74
2023/06/13 07:40:56;;;;;;;;;;;;;;;18.03;47.24;92206.13;2061770;69;20053;-77
2023/06/13 07:43:21;;;;;;;;;;;;;;;18.11;46.92;92208.47;2061790;69;20462;-76
2023/06/13 07:45:47;;;;;;;;;;;;;;;18.26;46.87;92201.00;2062042;69;20045;-77
2023/06/13 07:48:12;;;;;;;;;;;;;;;18.28;48.01;92198.94;2061847;69;20523;-76
2023/06/13 07:50:39;;;;;;;;;;;;;;;18.63;47.49;92196.88;2061879;69;20116;-75
2023/06/13 07:53:04;;;;;;;;;;;;;;;18.34;46.33;92189.81;2058302;69;20050;-74
2023/06/13 07:55:30;;;;;;;;;;;;;;;18.56;47.23;92194.59;2061886;69;20052;-77
2023/06/13 07:57:57;;;;;;;;;;;;;;;18.49;46.25;92188.00;2058212;69;20136;-78
2023/06/13 08:00:23;;;;;;;;;;;;;;;18.70;47.91;92177.84;2058300;69;20042;-74
2023/06/13 08:02:48;;;;;;;;;;;;;;;18.98;46.69;92181.31;2058253;69;20045;-75
2023/06/13 08:05:14;;;;;;;;;;;;;;;18.89;46.13;92176.84;2061957;69;20046;-75
2023/06/13 08:07:40;;;;;;;;;;;;;;;18.97;46.17;92173.44;2061916;69;20487;-74
2023/06/13 08:10:05;;;;;;;;;;;;;;;19.56;46.45;92166.03;2058211;69;20060;-76
2023/06/13 08:12:31;;;;;;;;;;;;;;;19.36;45.17;92168.50;2061829;69;20487;-75
2023/06/13 08:14:58;;;;;;;;;;;;;;;19.74;45.76;92165.69;2058339;69;20049;-75
2023/06/13 08:17:24;;;;;;;;;;;;;;;19.99;44.63;92164.00;2058392;69;20493;-73
2023/06/13 08:19:50;;;;;;;;;;;;;;;20.43;45.78;92160.44;2058551;69;20139;-75
2023/06/13 08:22:16;;;;;;;;;;;;;;;20.39;43.60;92157.50;2062099;69;20477;-75
2023/06/13 08:24:42;;;;;;;;;;;;;;;20.60;42.80;92170.00;2062083;69;20062;-76
2023/06/13 08:27:07;;;;;;;;;;;;;;;21.37;42.94;92156.06;2062004;69;20048;-77
2023/06/13 08:29:33;;;;;;;;;;;;;;;21.03;42.34;92154.19;2061999;69;20046;-76
2023/06/13 08:31:59;;;;;;;;;;;;;;;21.95;41.71;92144.53;2061907;69;20049;-76
2023/06/13 08:34:28;;;;;;;;;;;;;;;22.46;41.90;92152.91;2058504;69;20107;-74
2023/06/13 08:36:55;;;;;;;;;;;;;;;22.86;40.79;92152.44;2061745;69;20066;-76
2023/06/13 08:39:20;;;;;;;;;;;;;;;22.70;41.01;92144.47;2061704;69;20050;-76
2023/06/13 08:41:46;;;;;;;;;;;;;;;23.48;39.67;92142.03;2061782;69;20057;-75
2023/06/13 08:44:11;;;;;;;;;;;;;;;23.62;38.35;92135.63;2062018;69;20489;-74
2023/06/13 08:46:37;;;;;;;;;;;;;;;23.82;38.42;92130.69;2061780;69;20046;-77
2023/06/13 08:49:03;;;;;;;;;;;;;;;24.25;37.59;92130.03;2061636;69;20481;-76
2023/06/13 08:51:31;;;;;;;;;;;;;;;24.27;36.63;92125.00;2061731;69;20232;-76
2023/06/13 08:53:59;;;;;;;;;;;;;;;23.88;36.94;92129.28;2061754;69;20057;-77
2023/06/13 08:56:27;;;;;;;;;;;;;;;24.78;37.07;92118.53;2061762;69;20049;-78
2023/06/13 08:58:59;;;;;;;;;;;;;;;24.59;35.76;92115.66;2058072;69;20066;-76
2023/06/13 09:01:27;;;;;;;;;;;;;;;25.21;35.42;92115.59;2058089;69;20431;-78
2023/06/13 09:03:55;;;;;;;;;;;;;;;25.70;35.76;92118.28;2061631;69;20057;-76
2023/06/13 09:06:20;;;;;;;;;;;;;;;26.19;35.11;92106.50;2061741;69;20046;-77
2023/06/13 09:08:46;;;;;;;;;;;;;;;25.46;34.06;92102.53;2061696;69;20045;-77
2023/06/13 09:11:11;;;;;;;;;;;;;;;25.57;34.65;92106.81;2061594;69;20451;-79
2023/06/13 09:13:40;;;;;;;;;;;;;;;25.94;34.39;92095.13;2058162;69;20042;-77
2023/06/13 09:16:05;;;;;;;;;;;;;;;26.30;35.12;92102.81;2061736;69;20042;-75
2023/06/13 09:18:36;;;;;;;;;;;;;;;26.77;33.07;92099.56;2061729;69;20045;-77
2023/06/13 09:21:02;;;;;;;;;;;;;;;27.33;33.39;92096.84;2061774;69;20184;-78
2023/06/13 09:23:27;;;;;;;;;;;;;;;27.94;32.53;92089.59;2058083;69;20053;-77
2023/06/13 09:25:58;;;;;;;;;;;;;;;27.28;32.34;92086.81;2061675;69;20049;-78
2023/06/13 09:28:27;;;;;;;;;;;;;;;26.76;33.41;92080.81;2061899;69;20046;-77
2023/06/13 09:30:53;;;;;;;;;;;;;;;28.29;32.91;92066.69;2058074;69;20057;-77
2023/06/13 09:33:20;;;;;;;;;;;;;;;27.54;32.97;92066.25;2061603;69;20054;-78
2023/06/13 09:35:47;;;;;;;;;;;;;;;29.06;31.68;92064.72;2061602;69;20467;-78
2023/06/13 09:38:14;;;;;;;;;;;;;;;28.83;30.82;92053.50;2058071;69;20065;-78
2023/06/13 09:41:00;;;;;;;;;;;;;;;27.90;32.05;92054.97;2061611;69;20045;-77
2023/06/13 09:43:26;;;;;;;;;;;;;;;27.70;31.32;92056.66;2061457;69;20088;-78
2023/06/13 09:45:53;;;;;;;;;;;;;;;28.80;30.40;92051.38;2061893;69;20105;-77
2023/06/13 09:48:19;;;;;;;;;;;;;;;29.28;29.17;92054.88;2061538;69;20050;-77
2023/06/13 09:50:45;;;;;;;;;;;;;;;29.92;30.14;92045.59;2061941;69;20086;-79
2023/06/13 09:53:11;;;;;;;;;;;;;;;30.63;28.63;92043.97;2061712;69;20171;-78
2023/06/13 09:55:36;;;;;;;;;;;;;;;30.11;29.01;92037.94;2055658;69;20129;-77
2023/06/13 09:58:03;;;;;;;;;;;;;;;30.26;28.82;92036.16;2058298;69;20096;-78
2023/06/13 10:00:28;;;;;;;;;;;;;;;29.82;28.93;92035.66;2062030;69;20132;-77
2023/06/13 10:02:54;;;;;;;;;;;;;;;31.26;28.75;92030.03;2061802;69;20178;-77
2023/06/13 10:05:22;;;;;;;;;;;;;;;31.80;27.11;92029.97;2058430;69;20050;-78
2023/06/13 10:07:47;;;;;;;;;;;;;;;32.84;27.19;92020.91;2061887;69;20049;-76
2023/06/13 10:10:13;;;;;;;;;;;;;;;33.22;26.74;92021.09;2061939;69;20563;-76
2023/06/13 10:12:44;;;;;;;;;;;;;;;33.11;26.70;92027.28;2061880;69;20041;-79
2023/06/13 10:15:12;;;;;;;;;;;;;;;32.76;24.97;92013.16;2061997;69;20085;-77
2023/06/13 10:17:40;;;;;;;;;;;;;;;33.02;26.07;92010.84;2061736;69;20133;-78
2023/06/13 10:20:08;;;;;;;;;;;;;;;33.14;26.49;92014.06;2061684;69;20046;-75
2023/06/13 10:22:35;;;;;;;;;;;;;;;33.45;25.93;92015.19;2061539;69;20057;-78
2023/06/13 10:25:01;;;;;;;;;;;;;;;32.22;26.04;92004.69;2062003;69;20044;-76
2023/06/13 10:27:26;;;;;;;;;;;;;;;34.25;25.45;92010.03;2062140;69;20075;-76
2023/06/13 10:30:05;;;;;;;;;;;;;;;34.90;24.69;92007.41;2062142;69;20108;-77
2023/06/13 10:32:45;;;;;;;;;;;;;;;33.84;24.01;91994.06;2062032;69;20046;-76
2023/06/13 10:35:22;;;;;;;;;;;;;;;34.26;23.93;92000.47;2058379;69;20053;-76
2023/06/13 10:37:48;;;;;;;;;;;;;;;36.74;22.14;91994.03;2062028;69;20157;-79
2023/06/13 10:40:16;;;;;;;;;;;;;;;36.51;21.45;91996.63;2058475;69;20224;-78
2023/06/13 10:42:51;;;;;;;;;;;;;;;39.41;19.45;91987.06;2062001;69;20493;-79
2023/06/13 10:45:21;;;;;;;;;;;;;;;39.37;18.88;91990.94;2058485;69;20049;-79
2023/06/13 10:47:47;;;;;;;;;;;;;;;39.80;17.32;91985.44;2062014;69;20432;-78
2023/06/13 10:50:15;;;;;;;;;;;;;;;41.23;17.00;91985.91;2062051;69;20065;-78
2023/06/13 10:52:43;;;;;;;;;;;;;;;40.41;17.26;91981.63;2058526;69;20543;-80
2023/06/13 10:55:13;;;;;;;;;;;;;;;40.82;17.09;91970.88;2058675;69;20057;-79
2023/06/13 10:57:46;;;;;;;;;;;;;;;40.30;16.73;91963.91;2062096;69;20058;-79
2023/06/13 11:00:22;;;;;;;;;;;;;;;39.38;17.55;91957.72;2062206;69;20077;-77
2023/06/13 11:02:47;;;;;;;;;;;;;;;43.64;14.57;91957.63;2061999;69;20042;-76
2023/06/13 11:05:13;;;;;;;;;;;;;;;43.07;14.39;91950.09;2062196;69;20412;-78
2023/06/13 11:07:45;;;;;;;;;;;;;;;44.35;14.05;91954.34;2058391;69;20157;-79
2023/06/13 11:10:15;;;;;;;;;;;;;;;41.91;14.52;91945.91;2058546;69;20052;-78
2023/06/13 11:12:41;;;;;;;;;;;;;;;45.51;13.01;91953.09;2058535;69;20086;-78
2023/06/13 11:15:19;;;;;;;;;;;;;;;46.67;12.46;91950.59;2062277;69;20200;-79
2023/06/13 11:18:00;;;;;;;;;;;;;;;47.94;12.09;91949.41;2062286;69;20089;-79
2023/06/13 11:20:26;;;;;;;;;;;;;;;48.66;11.37;91954.56;2062720;69;20569;-79
2023/06/13 11:22:52;;;;;;;;;;;;;;;46.46;11.93;91949.38;2062591;69;20072;-78
2023/06/13 11:25:17;;;;;;;;;;;;;;;48.21;12.10;91943.94;2062039;69;20412;-77
2023/06/13 11:27:43;;;;;;;;;;;;;;;48.14;12.62;91940.84;2062322;69;20085;-77
2023/06/13 11:30:15;;;;;;;;;;;;;;;45.46;11.35;91922.34;2062809;69;20056;-77
2023/06/13 11:32:42;;;;;;;;;;;;;;;41.17;14.84;91917.72;2062761;69;20233;-78
2023/06/13 11:35:10;;;;;;;;;;;;;;;45.28;12.29;91929.78;2058417;69;20136;-77
2023/06/13 11:37:44;;;;;;;;;;;;;;;45.68;12.28;91919.00;2062118;69;20037;-77
2023/06/13 11:40:11;;;;;;;;;;;;;;;47.79;11.91;91926.22;2062193;69;20049;-77
2023/06/13 11:42:37;;;;;;;;;;;;;;;46.72;11.67;91912.94;2062099;69;20115;-78
2023/06/13 11:45:02;;;;;;;;;;;;;;;48.33;11.58;91910.63;2062282;69;20076;-77
2023/06/13 11:47:28;;;;;;;;;;;;;;;46.46;10.61;91907.72;2062087;69;20057;-78
2023/06/13 11:49:55;;;;;;;;;;;;;;;46.71;11.63;91909.25;2062199;69;20046;-78
2023/06/13 11:52:21;;;;;;;;;;;;;;;47.80;10.83;91912.00;2062104;69;20050;-79
2023/06/13 11:54:50;;;;;;;;;;;;;;;45.10;11.77;91896.38;2062007;69;20052;-78
2023/06/13 11:57:16;;;;;;;;;;;;;;;45.43;11.28;91885.44;2058451;69;20049;-79
2023/06/13 11:59:41;;;;;;;;;;;;;;;47.74;10.52;91892.38;2055622;69;20130;-78
2023/06/13 12:02:08;;;;;;;;;;;;;;;45.42;11.09;91892.25;2061840;69;20405;-78
2023/06/13 12:04:34;;;;;;;;;;;;;;;44.46;11.51;91886.00;2061990;69;20045;-77
2023/06/13 12:07:07;;;;;;;;;;;;;;;43.05;11.30;91872.56;2062062;69;20057;-77
2023/06/13 12:09:32;;;;;;;;;;;;;;;40.81;14.46;91871.41;2061901;69;20077;-78
2023/06/13 12:11:58;;;;;;;;;;;;;;;37.28;14.85;91863.69;2062228;69;20054;-77
2023/06/13 12:14:24;;;;;;;;;;;;;;;38.18;15.41;91869.88;2062166;69;20046;-79
2023/06/13 12:16:51;;;;;;;;;;;;;;;38.01;15.29;91867.84;2062082;69;20046;-78
2023/06/13 12:19:20;;;;;;;;;;;;;;;37.86;15.71;91858.44;2062142;69;20062;-78
2023/06/13 12:21:49;;;;;;;;;;;;;;;35.06;16.11;91845.22;2058771;69;20137;-78
2023/06/13 12:24:16;;;;;;;;;;;;;;;35.79;16.12;91852.84;2058525;69;20108;-78
2023/06/13 12:26:43;;;;;;;;;;;;;;;34.55;17.22;91844.53;2062134;69;20072;-78
2023/06/13 12:29:11;;;;;;;;;;;;;;;34.10;17.44;91846.38;2061948;69;20049;-78
2023/06/13 12:31:41;;;;;;;;;;;;;;;34.48;18.59;91841.13;2061891;69;20171;-77
2023/06/13 12:34:09;;;;;;;;;;;;;;;34.44;18.00;91843.50;2062017;69;20409;-77
2023/06/13 12:36:40;;;;;;;;;;;;;;;34.11;19.27;91839.72;2059098;69;20054;-78
2023/06/13 12:39:09;;;;;;;;;;;;;;;33.49;19.10;91846.56;2055036;69;20092;-78
2023/06/13 12:41:35;;;;;;;;;;;;;;;33.05;20.46;91843.84;2055050;69;20080;-77
2023/06/13 12:44:02;;;;;;;;;;;;;;;32.87;19.76;91844.50;2054866;69;20115;-77
2023/06/13 12:46:27;;;;;;;;;;;;;;;32.81;21.29;91838.91;2058370;69;20085;-77